VOI1720 MMGL-KLAX
Flight info
| Callsign | VOI1720 |
|---|---|
| Flight time | N/A |
| Altitude | 38000 |
| Route | SEDEM1B SEDEM UJ3 MZT UJ7 CEN DCT PILNA UT60 AXASA UT41 ASUTA DCT AMMOR OLAAA2 |
| Aircraft | A20N/M-SDE2E3FGHIRWXY/LB1 |
Departure
| Time | 2026-05-07 01:28 |
|---|---|
| Airport | Guadalajara International Airport (MMGL) |
Arrival
| Time | N/A |
|---|---|
| Airport | Los Angeles International Airport (KLAX) |
| Time | Latitude | Longitude | Altitude | Speed | Heading |
|---|---|---|---|---|---|
| 2026-05-07 01:28 | 20.59415 | -103.48019 | 8778 ft | 263 kts | 303° |
| 2026-05-07 01:28 | 20.60650 | -103.49543 | 8984 ft | 276 kts | 316° |
| 2026-05-07 01:28 | 20.62223 | -103.50758 | 9187 ft | 289 kts | 328° |
| 2026-05-07 01:29 | 20.65899 | -103.53394 | 9737 ft | 304 kts | 319° |
| 2026-05-07 01:29 | 20.67508 | -103.54833 | 10103 ft | 304 kts | 318° |
| 2026-05-07 01:29 | 20.69148 | -103.56334 | 10346 ft | 313 kts | 318° |
| 2026-05-07 01:29 | 20.70806 | -103.57866 | 10583 ft | 321 kts | 317° |
| 2026-05-07 01:30 | 20.72509 | -103.59447 | 10937 ft | 322 kts | 317° |
| 2026-05-07 01:30 | 20.74221 | -103.61038 | 11330 ft | 324 kts | 318° |
| 2026-05-07 01:30 | 20.75942 | -103.62643 | 11844 ft | 325 kts | 318° |
| 2026-05-07 01:30 | 20.77637 | -103.64224 | 12433 ft | 326 kts | 318° |
| 2026-05-07 01:31 | 20.79364 | -103.65836 | 13105 ft | 329 kts | 318° |
| 2026-05-07 01:31 | 20.81093 | -103.67452 | 13751 ft | 333 kts | 318° |
| 2026-05-07 01:31 | 20.82855 | -103.69096 | 14381 ft | 337 kts | 317° |
| 2026-05-07 01:31 | 20.84632 | -103.70755 | 14970 ft | 341 kts | 317° |
| 2026-05-07 01:32 | 20.86436 | -103.72440 | 15534 ft | 346 kts | 317° |
| 2026-05-07 01:32 | 20.88269 | -103.74154 | 16147 ft | 350 kts | 316° |
| 2026-05-07 01:32 | 20.90104 | -103.75870 | 16726 ft | 354 kts | 316° |
| 2026-05-07 01:32 | 20.91964 | -103.77615 | 17264 ft | 358 kts | 316° |
| 2026-05-07 01:33 | 20.93838 | -103.79370 | 17809 ft | 363 kts | 316° |
| 2026-05-07 01:33 | 20.95750 | -103.81160 | 18387 ft | 365 kts | 316° |
| 2026-05-07 01:33 | 20.97679 | -103.82968 | 18970 ft | 367 kts | 315° |
| 2026-05-07 01:33 | 20.99601 | -103.84771 | 19558 ft | 369 kts | 315° |
| 2026-05-07 01:34 | 21.01517 | -103.86571 | 20137 ft | 372 kts | 315° |
| 2026-05-07 01:34 | 21.03480 | -103.88413 | 20720 ft | 373 kts | 315° |
| 2026-05-07 01:34 | 21.05448 | -103.90261 | 21280 ft | 376 kts | 315° |
| 2026-05-07 01:34 | 21.07420 | -103.92110 | 21847 ft | 378 kts | 315° |
| 2026-05-07 01:35 | 21.09403 | -103.93972 | 22401 ft | 381 kts | 315° |
| 2026-05-07 01:35 | 21.11351 | -103.95928 | 22958 ft | 383 kts | 311° |
| 2026-05-07 01:35 | 21.13226 | -103.97977 | 23505 ft | 385 kts | 310° |
| 2026-05-07 01:35 | 21.15089 | -104.00043 | 24060 ft | 387 kts | 310° |
| 2026-05-07 01:36 | 21.16945 | -104.02107 | 24611 ft | 389 kts | 310° |
| 2026-05-07 01:36 | 21.18852 | -104.04223 | 25154 ft | 391 kts | 310° |
| 2026-05-07 01:36 | 21.20750 | -104.06325 | 25664 ft | 393 kts | 310° |
| 2026-05-07 01:36 | 21.22636 | -104.08411 | 26154 ft | 396 kts | 310° |
| 2026-05-07 01:37 | 21.24578 | -104.10561 | 26647 ft | 398 kts | 309° |
| 2026-05-07 01:37 | 21.26505 | -104.12699 | 27120 ft | 400 kts | 309° |
| 2026-05-07 01:37 | 21.28445 | -104.14853 | 27596 ft | 402 kts | 309° |
| 2026-05-07 01:37 | 21.30365 | -104.16985 | 28060 ft | 404 kts | 309° |
| 2026-05-07 01:38 | 21.32331 | -104.19169 | 28505 ft | 406 kts | 309° |
| 2026-05-07 01:38 | 21.34309 | -104.21365 | 28945 ft | 408 kts | 309° |
| 2026-05-07 01:38 | 21.36278 | -104.23549 | 29386 ft | 409 kts | 309° |
| 2026-05-07 01:38 | 21.38260 | -104.25751 | 29804 ft | 411 kts | 309° |
| 2026-05-07 01:39 | 21.40241 | -104.27951 | 30184 ft | 412 kts | 309° |
| 2026-05-07 01:39 | 21.42232 | -104.30164 | 30533 ft | 414 kts | 309° |
| 2026-05-07 01:39 | 21.44252 | -104.32409 | 30889 ft | 416 kts | 309° |
| 2026-05-07 01:39 | 21.46259 | -104.34644 | 31249 ft | 418 kts | 309° |
| 2026-05-07 01:40 | 21.48281 | -104.36895 | 31595 ft | 419 kts | 309° |
| 2026-05-07 01:40 | 21.50304 | -104.39146 | 31911 ft | 419 kts | 309° |
| 2026-05-07 01:40 | 21.52339 | -104.41414 | 32174 ft | 422 kts | 309° |
| 2026-05-07 01:40 | 21.54377 | -104.43685 | 32462 ft | 424 kts | 309° |
| 2026-05-07 01:41 | 21.56416 | -104.45957 | 32739 ft | 426 kts | 309° |
| 2026-05-07 01:41 | 21.58481 | -104.48260 | 33035 ft | 429 kts | 309° |
| 2026-05-07 01:41 | 21.60580 | -104.50601 | 33341 ft | 430 kts | 309° |
| 2026-05-07 01:41 | 21.62655 | -104.52915 | 33652 ft | 431 kts | 309° |
| 2026-05-07 01:42 | 21.64728 | -104.55228 | 34023 ft | 431 kts | 309° |
| 2026-05-07 01:42 | 21.66797 | -104.57539 | 34451 ft | 429 kts | 309° |
| 2026-05-07 01:42 | 21.68883 | -104.59869 | 34869 ft | 427 kts | 309° |
| 2026-05-07 01:42 | 21.70935 | -104.62163 | 35252 ft | 426 kts | 309° |
| 2026-05-07 01:43 | 21.72983 | -104.64455 | 35619 ft | 424 kts | 309° |
| 2026-05-07 01:43 | 21.75032 | -104.66747 | 35955 ft | 424 kts | 308° |
| 2026-05-07 01:43 | 21.77069 | -104.69025 | 36261 ft | 424 kts | 308° |
| 2026-05-07 01:43 | 21.79093 | -104.71291 | 36552 ft | 424 kts | 308° |
| 2026-05-07 01:44 | 21.81137 | -104.73581 | 36848 ft | 423 kts | 308° |
| 2026-05-07 01:44 | 21.83198 | -104.75890 | 37113 ft | 424 kts | 308° |
| 2026-05-07 01:44 | 21.85246 | -104.78188 | 37324 ft | 425 kts | 308° |
| 2026-05-07 01:44 | 21.87270 | -104.80459 | 37503 ft | 426 kts | 308° |
| 2026-05-07 01:45 | 21.89343 | -104.82786 | 37692 ft | 427 kts | 308° |
| 2026-05-07 01:45 | 21.91390 | -104.85086 | 37872 ft | 428 kts | 308° |
| 2026-05-07 01:45 | 21.93444 | -104.87394 | 38023 ft | 429 kts | 308° |
| 2026-05-07 01:46 | 21.97591 | -104.92053 | 38006 ft | 431 kts | 308° |
| 2026-05-07 01:46 | 22.01736 | -104.96715 | 37993 ft | 431 kts | 308° |
| 2026-05-07 01:47 | 22.05874 | -105.01376 | 37970 ft | 430 kts | 308° |
| 2026-05-07 01:47 | 22.09997 | -105.06027 | 37958 ft | 430 kts | 308° |
| 2026-05-07 01:48 | 22.14199 | -105.10770 | 37952 ft | 429 kts | 308° |
| 2026-05-07 01:48 | 22.18327 | -105.15434 | 37951 ft | 429 kts | 308° |
| 2026-05-07 01:49 | 22.22467 | -105.20113 | 37947 ft | 430 kts | 308° |
| 2026-05-07 01:49 | 22.26578 | -105.24765 | 37942 ft | 430 kts | 308° |
| 2026-05-07 01:50 | 22.30732 | -105.29467 | 37947 ft | 429 kts | 308° |
| 2026-05-07 01:50 | 22.34846 | -105.34131 | 37950 ft | 429 kts | 308° |
| 2026-05-07 01:51 | 22.38956 | -105.38796 | 37953 ft | 428 kts | 308° |
| 2026-05-07 01:51 | 22.43043 | -105.43437 | 37950 ft | 428 kts | 308° |
| 2026-05-07 01:52 | 22.47164 | -105.48124 | 37945 ft | 428 kts | 308° |
| 2026-05-07 01:52 | 22.51247 | -105.52767 | 37939 ft | 428 kts | 307° |
| 2026-05-07 01:53 | 22.55363 | -105.57455 | 37941 ft | 427 kts | 307° |
| 2026-05-07 01:53 | 22.59461 | -105.62128 | 37941 ft | 428 kts | 307° |
| 2026-05-07 01:54 | 22.63538 | -105.66781 | 37944 ft | 428 kts | 307° |
| 2026-05-07 01:54 | 22.67647 | -105.71474 | 37937 ft | 429 kts | 307° |
| 2026-05-07 01:55 | 22.71739 | -105.76151 | 37933 ft | 429 kts | 307° |
| 2026-05-07 01:55 | 22.75847 | -105.80852 | 37931 ft | 429 kts | 307° |
| 2026-05-07 01:56 | 22.79938 | -105.85538 | 37930 ft | 428 kts | 307° |
| 2026-05-07 01:56 | 22.84025 | -105.90223 | 37927 ft | 427 kts | 307° |
| 2026-05-07 01:57 | 22.88106 | -105.94905 | 37927 ft | 428 kts | 307° |
| 2026-05-07 01:57 | 22.92176 | -105.99584 | 37927 ft | 427 kts | 307° |
| 2026-05-07 01:58 | 22.96236 | -106.04253 | 37930 ft | 428 kts | 307° |
| 2026-05-07 01:58 | 23.00345 | -106.08982 | 37928 ft | 427 kts | 307° |
| 2026-05-07 01:59 | 23.04414 | -106.13669 | 37931 ft | 427 kts | 306° |
| 2026-05-07 01:59 | 23.08485 | -106.18362 | 37936 ft | 427 kts | 306° |
| 2026-05-07 02:00 | 23.12581 | -106.23084 | 37933 ft | 427 kts | 307° |
| 2026-05-07 02:00 | 23.16971 | -106.27502 | 37936 ft | 432 kts | 314° |
| 2026-05-07 02:01 | 23.21845 | -106.31419 | 37939 ft | 437 kts | 318° |
| 2026-05-07 02:01 | 23.26893 | -106.35153 | 37937 ft | 437 kts | 318° |
| 2026-05-07 02:02 | 23.31914 | -106.38869 | 37942 ft | 437 kts | 318° |
| 2026-05-07 02:02 | 23.36927 | -106.42590 | 37940 ft | 436 kts | 318° |
| 2026-05-07 02:03 | 23.41941 | -106.46319 | 37944 ft | 436 kts | 318° |
| 2026-05-07 02:03 | 23.46960 | -106.50055 | 37944 ft | 436 kts | 318° |
| 2026-05-07 02:04 | 23.51999 | -106.53808 | 37944 ft | 436 kts | 318° |
| 2026-05-07 02:04 | 23.56998 | -106.57539 | 37948 ft | 435 kts | 317° |
| 2026-05-07 02:05 | 23.61995 | -106.61269 | 37955 ft | 435 kts | 317° |
| 2026-05-07 02:05 | 23.66976 | -106.64992 | 37952 ft | 435 kts | 317° |
| 2026-05-07 02:06 | 23.71960 | -106.68720 | 37950 ft | 433 kts | 317° |
| 2026-05-07 02:06 | 23.76938 | -106.72449 | 37948 ft | 434 kts | 317° |
| 2026-05-07 02:07 | 23.81929 | -106.76190 | 37951 ft | 433 kts | 317° |
| 2026-05-07 02:07 | 23.89381 | -106.81786 | 37950 ft | 432 kts | 317° |
| 2026-05-07 02:08 | 23.94305 | -106.85485 | 37948 ft | 431 kts | 316° |
| 2026-05-07 02:08 | 23.99262 | -106.89215 | 37933 ft | 432 kts | 316° |
| 2026-05-07 02:09 | 24.04203 | -106.92931 | 37922 ft | 432 kts | 316° |
| 2026-05-07 02:09 | 24.09196 | -106.96692 | 37930 ft | 433 kts | 316° |
| 2026-05-07 02:10 | 24.14205 | -107.00468 | 37933 ft | 433 kts | 316° |
| 2026-05-07 02:10 | 24.19177 | -107.04219 | 37938 ft | 433 kts | 316° |
| 2026-05-07 02:11 | 24.24141 | -107.07968 | 37940 ft | 433 kts | 316° |
| 2026-05-07 02:11 | 24.29106 | -107.11723 | 37939 ft | 433 kts | 316° |
| 2026-05-07 02:12 | 24.34047 | -107.15465 | 37936 ft | 433 kts | 316° |
| 2026-05-07 02:12 | 24.39007 | -107.19226 | 37936 ft | 432 kts | 316° |
| 2026-05-07 02:13 | 24.43963 | -107.22982 | 37936 ft | 432 kts | 316° |
| 2026-05-07 02:13 | 24.48897 | -107.26729 | 37938 ft | 432 kts | 315° |
| 2026-05-07 02:14 | 24.53846 | -107.30494 | 37938 ft | 432 kts | 315° |
| 2026-05-07 02:14 | 24.58799 | -107.34265 | 37937 ft | 432 kts | 315° |
| 2026-05-07 02:15 | 24.63761 | -107.38046 | 37937 ft | 433 kts | 315° |
| 2026-05-07 02:15 | 24.68691 | -107.41808 | 37935 ft | 433 kts | 315° |
| 2026-05-07 02:16 | 24.73681 | -107.45618 | 37941 ft | 432 kts | 315° |
| 2026-05-07 02:16 | 24.78503 | -107.49514 | 37940 ft | 429 kts | 312° |
| 2026-05-07 02:17 | 24.83189 | -107.53598 | 37940 ft | 427 kts | 311° |
| 2026-05-07 02:17 | 24.87833 | -107.57661 | 37939 ft | 428 kts | 311° |
| 2026-05-07 02:18 | 24.92497 | -107.61740 | 37937 ft | 427 kts | 311° |
| 2026-05-07 02:18 | 24.97150 | -107.65813 | 37939 ft | 428 kts | 310° |
| 2026-05-07 02:19 | 25.01812 | -107.69898 | 37935 ft | 428 kts | 310° |
| 2026-05-07 02:19 | 25.06470 | -107.73983 | 37937 ft | 428 kts | 310° |
| 2026-05-07 02:20 | 25.11188 | -107.78120 | 37929 ft | 428 kts | 310° |
| 2026-05-07 02:20 | 25.15863 | -107.82221 | 37945 ft | 428 kts | 310° |
| 2026-05-07 02:21 | 25.20528 | -107.86316 | 37939 ft | 427 kts | 310° |
| 2026-05-07 02:21 | 25.25195 | -107.90421 | 37942 ft | 428 kts | 310° |
| 2026-05-07 02:22 | 25.29839 | -107.94506 | 37940 ft | 429 kts | 310° |
| 2026-05-07 02:22 | 25.34512 | -107.98620 | 37940 ft | 428 kts | 310° |
| 2026-05-07 02:23 | 25.39193 | -108.02755 | 37937 ft | 428 kts | 309° |
| 2026-05-07 02:23 | 25.43863 | -108.06878 | 37933 ft | 427 kts | 310° |
| 2026-05-07 02:24 | 25.48473 | -108.10953 | 37932 ft | 426 kts | 309° |
| 2026-05-07 02:24 | 25.53124 | -108.15070 | 37933 ft | 426 kts | 309° |
| 2026-05-07 02:25 | 25.57748 | -108.19167 | 37941 ft | 427 kts | 309° |
| 2026-05-07 02:25 | 25.62394 | -108.23286 | 37943 ft | 425 kts | 309° |
| 2026-05-07 02:26 | 25.67011 | -108.27387 | 37943 ft | 425 kts | 309° |
| 2026-05-07 02:26 | 25.71603 | -108.31467 | 37947 ft | 424 kts | 309° |
| 2026-05-07 02:27 | 25.76213 | -108.35571 | 37951 ft | 425 kts | 309° |
| 2026-05-07 02:27 | 25.80850 | -108.39704 | 37954 ft | 426 kts | 309° |
| 2026-05-07 02:28 | 25.85474 | -108.43825 | 37957 ft | 426 kts | 309° |
| 2026-05-07 02:28 | 25.90099 | -108.47953 | 37960 ft | 426 kts | 309° |
| 2026-05-07 02:29 | 25.94711 | -108.52074 | 37964 ft | 425 kts | 308° |
| 2026-05-07 02:29 | 25.99328 | -108.56207 | 37965 ft | 425 kts | 308° |
| 2026-05-07 02:30 | 26.03918 | -108.60319 | 37972 ft | 425 kts | 308° |
| 2026-05-07 02:30 | 26.08538 | -108.64462 | 37974 ft | 427 kts | 308° |
| 2026-05-07 02:31 | 26.13228 | -108.68671 | 37974 ft | 425 kts | 308° |
| 2026-05-07 02:31 | 26.17822 | -108.72795 | 37966 ft | 426 kts | 308° |
| 2026-05-07 02:32 | 26.22425 | -108.76937 | 37954 ft | 426 kts | 308° |
| 2026-05-07 02:32 | 26.27056 | -108.81105 | 37951 ft | 426 kts | 308° |
| 2026-05-07 02:33 | 26.31665 | -108.85258 | 37956 ft | 426 kts | 308° |
| 2026-05-07 02:33 | 26.36265 | -108.89407 | 37960 ft | 425 kts | 307° |
| 2026-05-07 02:34 | 26.40855 | -108.93553 | 37957 ft | 425 kts | 308° |
| 2026-05-07 02:34 | 26.45459 | -108.97717 | 37962 ft | 425 kts | 308° |
| 2026-05-07 02:35 | 26.50042 | -109.01865 | 37962 ft | 424 kts | 307° |
| 2026-05-07 02:35 | 26.54625 | -109.06018 | 37970 ft | 426 kts | 307° |
| 2026-05-07 02:36 | 26.59241 | -109.10202 | 37970 ft | 424 kts | 308° |
| 2026-05-07 02:36 | 26.63816 | -109.14355 | 37967 ft | 426 kts | 307° |
| 2026-05-07 02:37 | 26.68426 | -109.18543 | 37968 ft | 426 kts | 307° |
| 2026-05-07 02:37 | 26.73002 | -109.22706 | 37966 ft | 425 kts | 307° |
| 2026-05-07 02:38 | 26.77606 | -109.26904 | 37964 ft | 425 kts | 308° |
| 2026-05-07 02:38 | 26.82206 | -109.31100 | 37961 ft | 426 kts | 308° |
| 2026-05-07 02:39 | 26.86799 | -109.35291 | 37965 ft | 426 kts | 307° |
| 2026-05-07 02:39 | 26.91376 | -109.39477 | 37972 ft | 426 kts | 307° |
| 2026-05-07 02:40 | 26.96002 | -109.43710 | 37973 ft | 427 kts | 308° |
| 2026-05-07 02:40 | 27.00598 | -109.47919 | 37980 ft | 428 kts | 308° |
| 2026-05-07 02:41 | 27.05216 | -109.52149 | 37978 ft | 428 kts | 308° |
| 2026-05-07 02:41 | 27.09794 | -109.56352 | 37978 ft | 427 kts | 308° |
| 2026-05-07 02:42 | 27.14456 | -109.60640 | 37977 ft | 428 kts | 308° |
| 2026-05-07 02:42 | 27.19070 | -109.64888 | 37977 ft | 427 kts | 308° |
| 2026-05-07 02:43 | 27.23652 | -109.69109 | 37981 ft | 426 kts | 307° |
| 2026-05-07 02:43 | 27.28255 | -109.73357 | 37980 ft | 427 kts | 307° |
| 2026-05-07 02:44 | 27.32835 | -109.77586 | 37984 ft | 426 kts | 307° |
| 2026-05-07 02:44 | 27.37433 | -109.81838 | 37985 ft | 426 kts | 307° |
| 2026-05-07 02:45 | 27.42001 | -109.86092 | 37982 ft | 424 kts | 307° |
| 2026-05-07 02:45 | 27.46519 | -109.90350 | 37978 ft | 425 kts | 307° |
| 2026-05-07 02:46 | 27.51045 | -109.94624 | 37971 ft | 426 kts | 307° |
| 2026-05-07 02:46 | 27.55610 | -109.98931 | 37968 ft | 425 kts | 307° |
| 2026-05-07 02:47 | 27.60153 | -110.03227 | 37961 ft | 426 kts | 307° |
| 2026-05-07 02:47 | 27.64678 | -110.07509 | 37960 ft | 426 kts | 307° |
| 2026-05-07 02:48 | 27.69214 | -110.11803 | 37962 ft | 425 kts | 307° |
| 2026-05-07 02:48 | 27.73740 | -110.16095 | 37968 ft | 426 kts | 307° |
| 2026-05-07 02:49 | 27.78291 | -110.20416 | 37976 ft | 427 kts | 307° |
| 2026-05-07 02:49 | 27.82830 | -110.24729 | 37979 ft | 427 kts | 307° |
| 2026-05-07 02:50 | 27.87370 | -110.29047 | 37975 ft | 427 kts | 307° |
| 2026-05-07 02:50 | 27.91906 | -110.33371 | 37972 ft | 427 kts | 307° |
| 2026-05-07 02:51 | 27.96472 | -110.37721 | 37969 ft | 428 kts | 307° |
| 2026-05-07 02:51 | 28.01006 | -110.42050 | 37962 ft | 428 kts | 307° |
| 2026-05-07 02:52 | 28.05555 | -110.46393 | 37962 ft | 427 kts | 308° |
| 2026-05-07 02:52 | 28.10110 | -110.50747 | 37961 ft | 426 kts | 307° |
| 2026-05-07 02:53 | 28.14682 | -110.55124 | 37964 ft | 426 kts | 307° |
| 2026-05-07 02:53 | 28.19183 | -110.59441 | 37969 ft | 426 kts | 307° |
| 2026-05-07 02:54 | 28.23727 | -110.63804 | 37970 ft | 425 kts | 307° |
| 2026-05-07 02:54 | 28.28270 | -110.68174 | 37970 ft | 427 kts | 307° |
| 2026-05-07 02:55 | 28.32773 | -110.72506 | 37974 ft | 425 kts | 307° |
| 2026-05-07 02:55 | 28.37278 | -110.76848 | 37972 ft | 424 kts | 307° |
| 2026-05-07 02:56 | 28.41769 | -110.81179 | 37975 ft | 425 kts | 307° |
| 2026-05-07 02:56 | 28.46300 | -110.85555 | 37978 ft | 425 kts | 307° |
| 2026-05-07 02:57 | 28.50778 | -110.89883 | 37984 ft | 425 kts | 307° |
| 2026-05-07 02:57 | 28.55310 | -110.94270 | 37990 ft | 426 kts | 307° |
| 2026-05-07 02:58 | 28.59833 | -110.98653 | 37987 ft | 427 kts | 307° |
| 2026-05-07 02:58 | 28.64333 | -111.03019 | 37979 ft | 426 kts | 307° |
| 2026-05-07 02:59 | 28.68858 | -111.07413 | 37971 ft | 427 kts | 307° |
| 2026-05-07 02:59 | 28.73376 | -111.11808 | 37969 ft | 427 kts | 307° |
| 2026-05-07 03:00 | 28.77912 | -111.16223 | 37970 ft | 426 kts | 307° |
| 2026-05-07 03:00 | 28.82399 | -111.20595 | 37973 ft | 424 kts | 307° |
| 2026-05-07 03:01 | 28.86900 | -111.24989 | 37973 ft | 423 kts | 307° |
| 2026-05-07 03:01 | 28.91370 | -111.29359 | 37976 ft | 423 kts | 307° |
| 2026-05-07 03:02 | 28.95848 | -111.33740 | 37970 ft | 424 kts | 307° |
| 2026-05-07 03:02 | 29.00307 | -111.38109 | 37976 ft | 424 kts | 307° |
| 2026-05-07 03:03 | 29.04800 | -111.42513 | 37977 ft | 423 kts | 307° |
| 2026-05-07 03:03 | 29.09248 | -111.46883 | 37978 ft | 423 kts | 307° |
| 2026-05-07 03:04 | 29.13795 | -111.51350 | 37977 ft | 424 kts | 307° |
| 2026-05-07 03:04 | 29.18253 | -111.55741 | 37978 ft | 425 kts | 307° |
| 2026-05-07 03:05 | 29.22723 | -111.60146 | 37985 ft | 424 kts | 307° |
| 2026-05-07 03:05 | 29.27206 | -111.64567 | 37981 ft | 424 kts | 307° |
| 2026-05-07 03:06 | 29.31698 | -111.68999 | 37986 ft | 423 kts | 307° |
| 2026-05-07 03:06 | 29.36178 | -111.73429 | 37987 ft | 424 kts | 307° |
| 2026-05-07 03:07 | 29.40636 | -111.77840 | 37981 ft | 425 kts | 307° |
| 2026-05-07 03:07 | 29.45127 | -111.82295 | 37981 ft | 426 kts | 308° |
| 2026-05-07 03:08 | 29.49617 | -111.86748 | 37985 ft | 426 kts | 308° |
| 2026-05-07 03:08 | 29.54089 | -111.91193 | 37987 ft | 427 kts | 308° |
| 2026-05-07 03:09 | 29.58594 | -111.95676 | 38000 ft | 428 kts | 308° |
| 2026-05-07 03:09 | 29.63091 | -112.00153 | 38007 ft | 427 kts | 308° |
| 2026-05-07 03:10 | 29.67590 | -112.04639 | 38001 ft | 428 kts | 308° |
| 2026-05-07 03:10 | 29.72067 | -112.09113 | 38001 ft | 428 kts | 309° |
| 2026-05-07 03:11 | 29.76594 | -112.13638 | 38005 ft | 429 kts | 309° |
| 2026-05-07 03:11 | 29.81099 | -112.18147 | 38001 ft | 430 kts | 309° |
| 2026-05-07 03:12 | 29.85634 | -112.22692 | 38009 ft | 430 kts | 309° |
| 2026-05-07 03:12 | 29.90158 | -112.27232 | 38001 ft | 430 kts | 310° |
| 2026-05-07 03:13 | 29.94697 | -112.31791 | 38007 ft | 431 kts | 309° |
| 2026-05-07 03:13 | 29.99238 | -112.36357 | 37995 ft | 432 kts | 310° |
| 2026-05-07 03:14 | 30.03793 | -112.40948 | 38025 ft | 433 kts | 310° |
| 2026-05-07 03:15 | 30.10587 | -112.47800 | 37999 ft | 431 kts | 310° |
| 2026-05-07 03:15 | 30.15181 | -112.52447 | 38006 ft | 432 kts | 310° |
| 2026-05-07 03:16 | 30.19731 | -112.57051 | 37997 ft | 433 kts | 311° |
| 2026-05-07 03:16 | 30.24267 | -112.61645 | 37988 ft | 433 kts | 311° |
| 2026-05-07 03:17 | 30.28835 | -112.66277 | 37991 ft | 433 kts | 311° |
| 2026-05-07 03:17 | 30.33373 | -112.70885 | 37980 ft | 433 kts | 311° |
| 2026-05-07 03:18 | 30.37958 | -112.75549 | 37971 ft | 434 kts | 311° |
| 2026-05-07 03:18 | 30.42493 | -112.80167 | 37972 ft | 434 kts | 311° |
| 2026-05-07 03:19 | 30.47030 | -112.84792 | 37964 ft | 434 kts | 311° |
| 2026-05-07 03:19 | 30.51583 | -112.89440 | 37950 ft | 435 kts | 312° |
| 2026-05-07 03:20 | 30.56138 | -112.94102 | 37948 ft | 435 kts | 312° |
| 2026-05-07 03:20 | 30.60689 | -112.98760 | 37948 ft | 436 kts | 313° |
| 2026-05-07 03:21 | 30.65258 | -113.03443 | 37965 ft | 436 kts | 313° |
| 2026-05-07 03:21 | 30.69809 | -113.08114 | 37964 ft | 436 kts | 313° |
| 2026-05-07 03:22 | 30.74357 | -113.12785 | 37968 ft | 435 kts | 313° |
| 2026-05-07 03:22 | 30.78884 | -113.17448 | 37964 ft | 435 kts | 313° |
| 2026-05-07 03:23 | 30.83414 | -113.22114 | 37965 ft | 434 kts | 314° |
| 2026-05-07 03:23 | 30.87912 | -113.26748 | 37970 ft | 433 kts | 314° |
| 2026-05-07 03:24 | 30.92432 | -113.31419 | 37963 ft | 433 kts | 314° |
| 2026-05-07 03:24 | 30.96926 | -113.36070 | 37948 ft | 433 kts | 314° |
| 2026-05-07 03:25 | 31.01461 | -113.40765 | 37951 ft | 433 kts | 314° |
| 2026-05-07 03:25 | 31.05970 | -113.45437 | 37961 ft | 433 kts | 314° |
| 2026-05-07 03:26 | 31.10449 | -113.50095 | 37963 ft | 432 kts | 314° |
| 2026-05-07 03:26 | 31.15004 | -113.54835 | 37957 ft | 432 kts | 314° |
| 2026-05-07 03:27 | 31.19497 | -113.59514 | 37969 ft | 431 kts | 315° |
| 2026-05-07 03:27 | 31.23968 | -113.64177 | 37966 ft | 431 kts | 315° |
| 2026-05-07 03:28 | 31.28509 | -113.68916 | 37962 ft | 430 kts | 315° |
| 2026-05-07 03:28 | 31.32950 | -113.73557 | 37954 ft | 430 kts | 315° |
| 2026-05-07 03:29 | 31.37434 | -113.78254 | 37961 ft | 431 kts | 315° |
| 2026-05-07 03:29 | 31.41896 | -113.82928 | 37957 ft | 431 kts | 315° |
| 2026-05-07 03:30 | 31.46387 | -113.87643 | 37954 ft | 431 kts | 316° |
| 2026-05-07 03:30 | 31.50846 | -113.92327 | 37957 ft | 432 kts | 316° |
| 2026-05-07 03:31 | 31.55337 | -113.97061 | 37968 ft | 433 kts | 316° |
| 2026-05-07 03:31 | 31.59801 | -114.01807 | 37971 ft | 432 kts | 314° |
| 2026-05-07 03:32 | 31.63880 | -114.06934 | 37968 ft | 431 kts | 309° |
| 2026-05-07 03:32 | 31.67725 | -114.12331 | 37984 ft | 429 kts | 309° |
| 2026-05-07 03:33 | 31.71528 | -114.17696 | 37977 ft | 428 kts | 309° |
| 2026-05-07 03:33 | 31.75343 | -114.23073 | 37964 ft | 429 kts | 309° |
| 2026-05-07 03:34 | 31.79197 | -114.28512 | 37974 ft | 429 kts | 309° |
| 2026-05-07 03:34 | 31.83029 | -114.33929 | 37985 ft | 429 kts | 309° |
| 2026-05-07 03:35 | 31.86856 | -114.39342 | 37988 ft | 429 kts | 309° |
| 2026-05-07 03:35 | 31.90663 | -114.44746 | 37970 ft | 427 kts | 310° |
| 2026-05-07 03:36 | 31.94460 | -114.50127 | 37979 ft | 427 kts | 310° |
| 2026-05-07 03:36 | 31.98258 | -114.55524 | 37972 ft | 428 kts | 310° |
| 2026-05-07 03:37 | 32.02052 | -114.60924 | 37965 ft | 428 kts | 311° |
| 2026-05-07 03:37 | 32.05889 | -114.66391 | 37973 ft | 427 kts | 311° |
| 2026-05-07 03:38 | 32.09616 | -114.71715 | 37972 ft | 427 kts | 311° |
| 2026-05-07 03:38 | 32.13490 | -114.77251 | 37970 ft | 429 kts | 311° |
| 2026-05-07 03:39 | 32.17302 | -114.82707 | 37975 ft | 428 kts | 311° |
| 2026-05-07 03:39 | 32.21097 | -114.88149 | 37974 ft | 429 kts | 312° |
| 2026-05-07 03:40 | 32.24808 | -114.93474 | 37972 ft | 429 kts | 312° |
| 2026-05-07 03:40 | 32.28585 | -114.98909 | 37983 ft | 429 kts | 313° |
| 2026-05-07 03:41 | 32.32384 | -115.04397 | 37966 ft | 430 kts | 311° |
| 2026-05-07 03:41 | 32.35835 | -115.10183 | 37980 ft | 433 kts | 307° |
| 2026-05-07 03:42 | 32.39057 | -115.16176 | 37993 ft | 431 kts | 306° |
| 2026-05-07 03:42 | 32.42276 | -115.22192 | 37980 ft | 432 kts | 307° |
| 2026-05-07 03:43 | 32.45507 | -115.28226 | 37999 ft | 432 kts | 307° |
| 2026-05-07 03:43 | 32.48735 | -115.34267 | 37992 ft | 432 kts | 307° |
| 2026-05-07 03:44 | 32.51965 | -115.40316 | 38017 ft | 433 kts | 307° |
| 2026-05-07 03:44 | 32.55187 | -115.46358 | 38007 ft | 433 kts | 307° |
| 2026-05-07 03:45 | 32.58405 | -115.52405 | 38004 ft | 433 kts | 307° |
| 2026-05-07 03:45 | 32.61636 | -115.58483 | 37989 ft | 432 kts | 307° |
| 2026-05-07 03:46 | 32.64829 | -115.64508 | 38008 ft | 432 kts | 308° |
| 2026-05-07 03:46 | 32.68070 | -115.70632 | 38014 ft | 433 kts | 307° |
| 2026-05-07 03:47 | 32.71269 | -115.76695 | 37963 ft | 434 kts | 307° |
| 2026-05-07 03:47 | 32.72841 | -115.79680 | 37997 ft | 434 kts | 307° |
| 2026-05-07 03:48 | 32.76905 | -115.87414 | 36502 ft | 442 kts | 308° |
| 2026-05-07 03:48 | 32.78933 | -115.91278 | 35613 ft | 443 kts | 309° |
| 2026-05-07 03:48 | 32.80571 | -115.94401 | 34982 ft | 445 kts | 309° |
| 2026-05-07 03:48 | 32.82188 | -115.97568 | 34278 ft | 450 kts | 308° |
| 2026-05-07 03:49 | 32.83807 | -116.00804 | 33493 ft | 454 kts | 308° |
| 2026-05-07 03:49 | 32.85426 | -116.04041 | 32746 ft | 455 kts | 308° |
| 2026-05-07 03:49 | 32.87030 | -116.07250 | 32273 ft | 450 kts | 308° |
| 2026-05-07 03:49 | 32.88606 | -116.10416 | 31856 ft | 443 kts | 308° |
| 2026-05-07 03:50 | 32.90158 | -116.13531 | 31450 ft | 436 kts | 308° |
| 2026-05-07 03:50 | 32.91697 | -116.16615 | 31024 ft | 431 kts | 308° |
| 2026-05-07 03:50 | 32.93223 | -116.19675 | 30581 ft | 427 kts | 308° |
| 2026-05-07 03:50 | 32.94730 | -116.22700 | 30157 ft | 421 kts | 308° |
| 2026-05-07 03:51 | 32.96212 | -116.25671 | 29719 ft | 417 kts | 308° |
| 2026-05-07 03:51 | 32.97683 | -116.28619 | 29290 ft | 413 kts | 308° |
| 2026-05-07 03:51 | 32.99149 | -116.31561 | 28881 ft | 409 kts | 308° |
| 2026-05-07 03:51 | 33.00582 | -116.34443 | 28476 ft | 404 kts | 308° |
| 2026-05-07 03:52 | 33.02036 | -116.37369 | 28095 ft | 400 kts | 308° |
| 2026-05-07 03:52 | 33.03437 | -116.40197 | 27700 ft | 395 kts | 308° |
| 2026-05-07 03:52 | 33.04790 | -116.43117 | 27285 ft | 394 kts | 304° |
| 2026-05-07 03:52 | 33.05978 | -116.46093 | 26885 ft | 393 kts | 301° |
| 2026-05-07 03:53 | 33.07091 | -116.49062 | 26483 ft | 390 kts | 301° |
| 2026-05-07 03:53 | 33.08196 | -116.52027 | 26069 ft | 387 kts | 301° |
| 2026-05-07 03:53 | 33.09304 | -116.55007 | 25663 ft | 383 kts | 301° |
| 2026-05-07 03:53 | 33.10389 | -116.57917 | 25259 ft | 380 kts | 301° |
| 2026-05-07 03:54 | 33.11487 | -116.60864 | 24827 ft | 378 kts | 301° |
| 2026-05-07 03:54 | 33.12537 | -116.63798 | 24373 ft | 379 kts | 297° |
| 2026-05-07 03:54 | 33.13372 | -116.66840 | 23941 ft | 381 kts | 291° |
| 2026-05-07 03:54 | 33.13957 | -116.69954 | 23452 ft | 384 kts | 286° |
| 2026-05-07 03:55 | 33.14424 | -116.73068 | 22985 ft | 383 kts | 285° |
| 2026-05-07 03:55 | 33.14861 | -116.76125 | 22548 ft | 382 kts | 285° |
| 2026-05-07 03:55 | 33.15271 | -116.78992 | 22124 ft | 382 kts | 285° |
| 2026-05-07 03:55 | 33.15727 | -116.82153 | 21627 ft | 381 kts | 285° |
| 2026-05-07 03:56 | 33.16181 | -116.85281 | 21168 ft | 380 kts | 284° |
| 2026-05-07 03:56 | 33.16632 | -116.88384 | 20718 ft | 377 kts | 284° |
| 2026-05-07 03:56 | 33.17078 | -116.91454 | 20257 ft | 375 kts | 284° |
| 2026-05-07 03:56 | 33.17519 | -116.94482 | 19800 ft | 374 kts | 284° |
| 2026-05-07 03:57 | 33.17968 | -116.97581 | 19326 ft | 373 kts | 284° |
| 2026-05-07 03:57 | 33.18408 | -117.00616 | 18857 ft | 371 kts | 284° |
| 2026-05-07 03:57 | 33.18848 | -117.03652 | 18382 ft | 369 kts | 284° |
| 2026-05-07 03:57 | 33.19280 | -117.06644 | 17916 ft | 368 kts | 284° |
| 2026-05-07 03:58 | 33.19714 | -117.09642 | 17456 ft | 367 kts | 284° |
| 2026-05-07 03:58 | 33.20149 | -117.12669 | 16986 ft | 364 kts | 284° |
| 2026-05-07 03:58 | 33.20576 | -117.15651 | 16520 ft | 363 kts | 284° |
| 2026-05-07 03:58 | 33.21001 | -117.18610 | 16055 ft | 362 kts | 284° |
| 2026-05-07 03:59 | 33.21429 | -117.21584 | 15589 ft | 361 kts | 284° |
| 2026-05-07 03:59 | 33.21856 | -117.24564 | 15125 ft | 359 kts | 284° |
| 2026-05-07 03:59 | 33.22271 | -117.27476 | 14666 ft | 356 kts | 284° |
| 2026-05-07 03:59 | 33.22686 | -117.30402 | 14210 ft | 352 kts | 284° |
| 2026-05-07 04:00 | 33.23106 | -117.33288 | 13863 ft | 343 kts | 284° |
| 2026-05-07 04:00 | 33.23536 | -117.36066 | 13876 ft | 336 kts | 285° |
| 2026-05-07 04:00 | 33.23974 | -117.38827 | 13899 ft | 336 kts | 285° |
| 2026-05-07 04:00 | 33.24404 | -117.41592 | 13920 ft | 337 kts | 285° |
| 2026-05-07 04:01 | 33.24833 | -117.44337 | 13940 ft | 337 kts | 285° |
| 2026-05-07 04:01 | 33.25259 | -117.47076 | 13943 ft | 337 kts | 285° |
| 2026-05-07 04:01 | 33.25695 | -117.49872 | 13584 ft | 339 kts | 285° |
| 2026-05-07 04:01 | 33.26237 | -117.52608 | 13099 ft | 336 kts | 294° |
| 2026-05-07 04:02 | 33.27183 | -117.55095 | 12846 ft | 322 kts | 305° |
| 2026-05-07 04:02 | 33.28368 | -117.57364 | 12867 ft | 320 kts | 308° |
| 2026-05-07 04:02 | 33.29594 | -117.59608 | 12890 ft | 320 kts | 308° |
| 2026-05-07 04:02 | 33.30810 | -117.61828 | 12914 ft | 321 kts | 308° |
| 2026-05-07 04:03 | 33.32032 | -117.64075 | 12935 ft | 321 kts | 308° |
| 2026-05-07 04:03 | 33.33261 | -117.66342 | 12946 ft | 321 kts | 307° |
| 2026-05-07 04:03 | 33.34482 | -117.68597 | 12964 ft | 322 kts | 307° |
| 2026-05-07 04:03 | 33.35690 | -117.70840 | 12961 ft | 322 kts | 307° |
| 2026-05-07 04:04 | 33.36915 | -117.73122 | 12941 ft | 322 kts | 307° |
| 2026-05-07 04:04 | 33.38112 | -117.75348 | 12938 ft | 322 kts | 307° |
| 2026-05-07 04:04 | 33.39339 | -117.77630 | 12954 ft | 321 kts | 307° |
| 2026-05-07 04:04 | 33.40534 | -117.79859 | 12936 ft | 320 kts | 307° |
| 2026-05-07 04:05 | 33.41752 | -117.82139 | 12558 ft | 321 kts | 307° |
| 2026-05-07 04:05 | 33.42935 | -117.84351 | 12146 ft | 318 kts | 307° |
| 2026-05-07 04:05 | 33.44114 | -117.86565 | 11767 ft | 314 kts | 307° |
| 2026-05-07 04:05 | 33.45295 | -117.88773 | 11370 ft | 311 kts | 307° |
| 2026-05-07 04:06 | 33.46447 | -117.90930 | 10999 ft | 307 kts | 307° |
| 2026-05-07 04:06 | 33.47801 | -117.92890 | 10604 ft | 299 kts | 325° |
| 2026-05-07 04:06 | 33.49539 | -117.94129 | 10231 ft | 287 kts | 342° |
| 2026-05-07 04:06 | 33.51414 | -117.94952 | 9978 ft | 276 kts | 345° |
| 2026-05-07 04:07 | 33.53162 | -117.95686 | 9734 ft | 262 kts | 345° |
| 2026-05-07 04:07 | 33.54868 | -117.96402 | 9402 ft | 251 kts | 344° |
| 2026-05-07 04:07 | 33.56497 | -117.97096 | 9089 ft | 242 kts | 344° |
| 2026-05-07 04:07 | 33.58064 | -117.97769 | 8812 ft | 236 kts | 343° |
| 2026-05-07 04:08 | 33.59588 | -117.98424 | 8520 ft | 232 kts | 342° |
| 2026-05-07 04:08 | 33.61121 | -117.99085 | 8218 ft | 233 kts | 341° |
| 2026-05-07 04:08 | 33.62660 | -117.99728 | 7925 ft | 232 kts | 343° |
| 2026-05-07 04:08 | 33.64194 | -118.00296 | 7891 ft | 230 kts | 343° |
| 2026-05-07 04:09 | 33.65763 | -118.00874 | 7787 ft | 233 kts | 343° |
| 2026-05-07 04:09 | 33.67343 | -118.01453 | 7465 ft | 233 kts | 343° |
| 2026-05-07 04:09 | 33.68910 | -118.02026 | 7165 ft | 232 kts | 343° |
| 2026-05-07 04:09 | 33.70461 | -118.02593 | 6931 ft | 227 kts | 343° |
| 2026-05-07 04:10 | 33.71983 | -118.03149 | 6912 ft | 228 kts | 343° |
| 2026-05-07 04:10 | 33.73528 | -118.03713 | 6910 ft | 229 kts | 343° |
| 2026-05-07 04:10 | 33.75053 | -118.04270 | 6908 ft | 229 kts | 343° |
| 2026-05-07 04:10 | 33.76603 | -118.04836 | 6889 ft | 229 kts | 343° |
| 2026-05-07 04:11 | 33.78143 | -118.05408 | 6889 ft | 229 kts | 341° |
| 2026-05-07 04:11 | 33.79658 | -118.06093 | 6743 ft | 231 kts | 338° |
| 2026-05-07 04:11 | 33.81171 | -118.06815 | 6445 ft | 229 kts | 338° |
| 2026-05-07 04:11 | 33.82640 | -118.07525 | 6190 ft | 226 kts | 338° |
| 2026-05-07 04:12 | 33.84116 | -118.08237 | 5922 ft | 225 kts | 338° |
| 2026-05-07 04:12 | 33.85603 | -118.08953 | 5646 ft | 225 kts | 338° |
| 2026-05-07 04:12 | 33.87076 | -118.09665 | 5370 ft | 223 kts | 338° |
| 2026-05-07 04:12 | 33.88516 | -118.10348 | 5104 ft | 222 kts | 341° |
| 2026-05-07 04:13 | 33.90049 | -118.10753 | 4908 ft | 221 kts | 353° |
| 2026-05-07 04:13 | 33.91614 | -118.10885 | 4741 ft | 223 kts | 356° |
| 2026-05-07 04:13 | 33.93144 | -118.11250 | 4458 ft | 221 kts | 332° |
| 2026-05-07 04:13 | 33.94388 | -118.12279 | 4230 ft | 217 kts | 321° |
| 2026-05-07 04:14 | 33.95504 | -118.13473 | 4003 ft | 210 kts | 303° |
| 2026-05-07 04:14 | 33.95960 | -118.15039 | 3958 ft | 190 kts | 276° |
| 2026-05-07 04:14 | 33.95946 | -118.16631 | 3694 ft | 185 kts | 266° |
| 2026-05-07 04:14 | 33.95818 | -118.18148 | 3414 ft | 183 kts | 264° |
| 2026-05-07 04:15 | 33.95662 | -118.19660 | 3141 ft | 180 kts | 263° |
| 2026-05-07 04:15 | 33.95504 | -118.21138 | 2880 ft | 176 kts | 264° |
| 2026-05-07 04:15 | 33.95351 | -118.22593 | 2628 ft | 172 kts | 264° |
| 2026-05-07 04:15 | 33.95204 | -118.23996 | 2403 ft | 162 kts | 264° |
| 2026-05-07 04:16 | 33.95069 | -118.25282 | 2175 ft | 147 kts | 265° |
| 2026-05-07 04:16 | 33.94950 | -118.26446 | 1961 ft | 135 kts | 264° |
| 2026-05-07 04:16 | 33.94839 | -118.27561 | 1793 ft | 134 kts | 262° |
| 2026-05-07 04:16 | 33.94738 | -118.28524 | 1671 ft | 134 kts | 263° |
| 2026-05-07 04:17 | 33.94728 | -118.28632 | 1654 ft | 134 kts | 263° |
| 2026-05-07 04:17 | 33.94629 | -118.29502 | 1511 ft | 134 kts | 262° |
| 2026-05-07 04:17 | 33.94505 | -118.30617 | 1336 ft | 132 kts | 265° |
| 2026-05-07 04:18 | 33.94398 | -118.31731 | 1190 ft | 132 kts | 263° |